Time;durP1;ratioP1;P1;durP2;ratioP2;P2;SDS_P1;SDS_P2;PMS_P1;PMS_P2;Temp;Humidity;BMP_temperature;BMP_pressure;BME280_temperature;BME280_humidity;BME280_pressure;Samples;Min_cycle;Max_cycle;Signal;HPM_P1;HPM_P2
2024/03/23 00:02:03;;;;;;;23.15;8.90;;;;;;;7.01;100.00;69169.50;5090983;28;20131;-48
2024/03/23 00:04:32;;;;;;;27.45;8.10;;;;;;;7.04;100.00;69173.00;5090835;28;20040;-50
2024/03/23 00:07:04;;;;;;;27.25;7.63;;;;;;;7.00;100.00;69168.94;5085902;28;20044;-47
2024/03/23 00:09:34;;;;;;;21.58;7.57;;;;;;;6.99;100.00;69165.16;5087740;28;20523;-48
2024/03/23 00:12:05;;;;;;;25.50;8.48;;;;;;;6.96;100.00;69166.88;5087247;28;20495;-51
2024/03/23 00:14:37;;;;;;;24.23;8.40;;;;;;;6.97;100.00;69165.44;5089926;28;20055;-49
2024/03/23 00:17:08;;;;;;;28.52;8.50;;;;;;;6.94;100.00;69159.38;5090758;28;20060;-47
2024/03/23 00:19:38;;;;;;;24.73;7.90;;;;;;;6.96;100.00;69159.09;5090869;28;20048;-48
2024/03/23 00:22:08;;;;;;;20.88;7.80;;;;;;;6.94;100.00;69165.13;5090595;28;20129;-50
2024/03/23 00:24:39;;;;;;;24.35;8.63;;;;;;;6.89;100.00;69153.53;5088303;28;20048;-49
2024/03/23 00:27:10;;;;;;;17.42;7.50;;;;;;;6.86;100.00;69150.63;5087442;28;20495;-49
2024/03/23 00:29:40;;;;;;;22.02;7.65;;;;;;;6.85;100.00;69152.06;5087399;28;20189;-49
2024/03/23 00:32:11;;;;;;;21.20;7.43;;;;;;;6.83;100.00;69151.75;5087530;28;20499;-47
2024/03/23 00:34:41;;;;;;;23.88;7.40;;;;;;;6.82;100.00;69153.75;5090350;28;20087;-49
2024/03/23 00:37:12;;;;;;;21.17;8.73;;;;;;;6.82;100.00;69148.56;5073299;28;20040;-48
2024/03/23 00:39:42;;;;;;;18.88;7.47;;;;;;;6.80;100.00;69146.25;5090313;28;20071;-47
2024/03/23 00:42:13;;;;;;;24.05;8.23;;;;;;;6.82;100.00;69148.56;5090105;28;20036;-47
2024/03/23 00:44:42;;;;;;;23.95;7.63;;;;;;;6.77;100.00;69142.75;5090471;28;20052;-49
2024/03/23 00:47:13;;;;;;;24.25;7.53;;;;;;;6.74;100.00;69137.25;5090204;28;20085;-47
2024/03/23 00:49:43;;;;;;;21.60;8.60;;;;;;;6.74;100.00;69139.28;5090373;28;20407;-48
2024/03/23 00:52:14;;;;;;;21.52;7.40;;;;;;;6.76;100.00;69139.00;5090090;28;20048;-46
2024/03/23 00:54:42;;;;;;;21.88;7.47;;;;;;;6.74;100.00;69145.03;5090098;28;20048;-46
2024/03/23 00:57:12;;;;;;;21.90;7.05;;;;;;;6.73;100.00;69138.66;5090102;28;20036;-51
2024/03/23 00:59:38;;;;;;;17.55;7.22;;;;;;;6.72;100.00;69139.53;5090204;28;20044;-46
2024/03/23 01:02:05;;;;;;;19.30;7.05;;;;;;;6.71;100.00;69136.34;5090084;28;20112;-47
2024/03/23 01:04:31;;;;;;;20.42;6.82;;;;;;;6.71;100.00;69133.19;5073444;28;20052;-48
2024/03/23 01:06:58;;;;;;;17.10;6.70;;;;;;;6.68;100.00;69134.88;5089955;28;20147;-46
2024/03/23 01:09:24;;;;;;;26.38;7.90;;;;;;;6.67;100.00;69128.53;5090172;28;20046;-47
2024/03/23 01:11:54;;;;;;;22.67;7.47;;;;;;;6.66;100.00;69132.56;5090095;28;20044;-46
2024/03/23 01:14:20;;;;;;;19.73;6.90;;;;;;;6.65;100.00;69126.19;5089960;28;20085;-45
2024/03/23 01:16:47;;;;;;;24.67;7.45;;;;;;;6.66;100.00;69133.13;5073226;28;20506;-47
2024/03/23 01:19:14;;;;;;;17.40;6.50;;;;;;;6.64;100.00;69130.22;5089973;28;20051;-48
2024/03/23 01:21:43;;;;;;;16.80;6.88;;;;;;;6.64;100.00;69130.22;5089836;28;20550;-46
2024/03/23 01:24:10;;;;;;;24.02;7.03;;;;;;;6.60;100.00;69121.53;5089758;28;20040;-48
2024/03/23 01:26:38;;;;;;;19.00;6.53;;;;;;;6.60;100.00;69124.13;5089991;28;20048;-47
2024/03/23 01:29:05;;;;;;;17.08;6.32;;;;;;;6.57;100.00;69120.66;5089861;28;20376;-46
2024/03/23 01:31:33;;;;;;;18.42;7.47;;;;;;;6.53;100.00;69118.00;5106930;28;20101;-47
2024/03/23 01:34:03;;;;;;;19.48;6.88;;;;;;;6.51;100.00;69107.91;5089848;28;20050;-47
2024/03/23 01:36:30;;;;;;;19.02;5.97;;;;;;;6.52;100.00;69114.84;5092655;28;20063;-47
2024/03/23 01:38:56;;;;;;;19.88;6.55;;;;;;;6.50;100.00;69106.75;5093703;28;20040;-47
2024/03/23 01:41:25;;;;;;;15.85;5.93;;;;;;;6.46;100.00;69109.88;5092400;28;20836;-47
2024/03/23 01:43:51;;;;;;;17.05;6.03;;;;;;;6.47;100.00;69105.84;5090305;28;20391;-49
2024/03/23 01:46:20;;;;;;;14.32;6.15;;;;;;;6.42;100.00;69101.19;5092482;28;20101;-51
2024/03/23 01:48:46;;;;;;;19.30;6.70;;;;;;;6.42;100.00;69103.19;5093005;28;20044;-49
2024/03/23 01:51:14;;;;;;;17.95;6.10;;;;;;;6.41;100.00;69102.63;5093306;28;20040;-49
2024/03/23 01:53:43;;;;;;;18.77;6.50;;;;;;;6.40;100.00;69101.44;5093517;28;20101;-48
2024/03/23 01:56:11;;;;;;;20.63;7.20;;;;;;;6.41;100.00;69102.63;5093414;28;20037;-47
2024/03/23 01:58:39;;;;;;;21.40;7.40;;;;;;;6.39;100.00;69099.72;5091789;28;20412;-48
2024/03/23 02:01:06;;;;;;;17.55;6.97;;;;;;;6.37;100.00;69092.22;5090123;28;20040;-48
2024/03/23 02:03:36;;;;;;;22.58;8.27;;;;;;;6.34;100.00;69094.47;5093018;28;20042;-49
2024/03/23 02:06:07;;;;;;;21.15;6.47;;;;;;;6.34;100.00;69093.88;5093381;28;20040;-50
2024/03/23 02:08:34;;;;;;;16.77;6.10;;;;;;;6.32;100.00;69094.72;5093086;28;20048;-45
2024/03/23 02:11:01;;;;;;;14.52;6.50;;;;;;;6.33;100.00;69095.34;5093366;28;20495;-47
2024/03/23 02:13:27;;;;;;;12.95;5.47;;;;;;;6.31;100.00;69093.00;5093283;28;20082;-46
2024/03/23 02:15:57;;;;;;;15.35;5.47;;;;;;;6.31;100.00;69087.81;5093609;28;20052;-47
2024/03/23 02:18:25;;;;;;;19.98;5.85;;;;;;;6.26;100.00;69085.19;5092972;28;20036;-47
2024/03/23 02:20:54;;;;;;;14.32;5.68;;;;;;;6.27;100.00;69088.91;5093037;28;20087;-47
2024/03/23 02:23:21;;;;;;;19.10;6.13;;;;;;;6.24;100.00;69082.84;5110255;28;20056;-46
2024/03/23 02:25:48;;;;;;;15.63;6.63;;;;;;;6.24;100.00;69080.25;5093044;28;20036;-48
2024/03/23 02:28:15;;;;;;;20.17;6.13;;;;;;;6.23;100.00;69082.25;5092757;28;20182;-47
2024/03/23 02:30:42;;;;;;;18.00;6.05;;;;;;;6.23;100.00;69079.69;5092094;28;20039;-48
2024/03/23 02:33:08;;;;;;;17.48;6.22;;;;;;;6.20;100.00;69076.19;5072642;28;20040;-49
2024/03/23 02:35:35;;;;;;;19.98;7.05;;;;;;;6.16;100.00;69074.13;5088723;28;20050;-51
2024/03/23 02:38:01;;;;;;;20.75;7.20;;;;;;;6.17;100.00;69075.28;5091032;28;20036;-51
2024/03/23 02:40:30;;;;;;;15.02;6.75;;;;;;;6.15;100.00;69072.97;5092826;28;20066;-52
2024/03/23 02:42:56;;;;;;;20.48;7.78;;;;;;;6.17;100.00;69072.13;5092149;28;20055;-53
2024/03/23 02:45:23;;;;;;;20.75;7.05;;;;;;;6.15;100.00;69074.97;5089291;28;20383;-49
2024/03/23 02:47:52;;;;;;;19.30;7.75;;;;;;;6.17;100.00;69075.28;5073349;28;20040;-48
2024/03/23 02:50:19;;;;;;;21.55;8.05;;;;;;;6.15;100.00;69072.97;5092072;28;20170;-53
2024/03/23 02:52:46;;;;;;;21.00;7.80;;;;;;;6.14;100.00;69068.63;5092280;28;20142;-51
2024/03/23 02:55:13;;;;;;;22.23;8.50;;;;;;;6.11;100.00;69065.13;5088807;28;20044;-49
2024/03/23 02:57:41;;;;;;;20.75;7.93;;;;;;;6.09;100.00;69063.38;5089478;28;20499;-50
2024/03/23 03:00:10;;;;;;;21.50;8.05;;;;;;;6.07;100.00;69064.22;5089025;28;20044;-49
2024/03/23 03:02:37;;;;;;;18.67;7.70;;;;;;;6.05;100.00;69063.91;5089914;28;20054;-52
2024/03/23 03:05:05;;;;;;;22.45;8.35;;;;;;;6.02;100.00;69055.81;5092176;28;20044;-50
2024/03/23 03:07:31;;;;;;;21.38;7.80;;;;;;;6.00;100.00;69058.09;5092006;28;20040;-50
2024/03/23 03:09:59;;;;;;;23.20;8.05;;;;;;;5.98;100.00;69050.59;5092097;28;20048;-51
2024/03/23 03:12:25;;;;;;;17.95;8.13;;;;;;;5.98;100.00;69050.59;5092010;28;20040;-50
2024/03/23 03:14:53;;;;;;;23.00;8.38;;;;;;;5.95;100.00;69047.09;5091010;28;20055;-53
2024/03/23 03:17:19;;;;;;;20.38;8.68;;;;;;;5.95;100.00;69047.66;5088742;28;20048;-51
2024/03/23 03:19:46;;;;;;;25.27;8.48;;;;;;;5.92;100.00;69049.94;5088679;28;20044;-52
2024/03/23 03:22:13;;;;;;;20.42;8.32;;;;;;;5.87;100.00;69038.94;5089547;28;20449;-51
2024/03/23 03:24:40;;;;;;;20.63;8.52;;;;;;;5.84;100.00;69040.63;5091423;28;20475;-50
2024/03/23 03:27:06;;;;;;;26.27;8.25;;;;;;;5.85;100.00;69036.03;5074537;28;20048;-49
2024/03/23 03:29:35;;;;;;;20.58;8.40;;;;;;;5.83;100.00;69033.72;5090488;28;20184;-49
2024/03/23 03:32:03;;;;;;;18.88;8.25;;;;;;;5.83;100.00;69042.06;5087902;28;20040;-50
2024/03/23 03:34:31;;;;;;;23.42;9.20;;;;;;;5.79;100.00;69034.25;5090621;28;20123;-47
2024/03/23 03:36:59;;;;;;;18.70;8.60;;;;;;;5.76;100.00;69031.34;5091616;28;20112;-48
2024/03/23 03:39:29;;;;;;;27.27;8.75;;;;;;;5.75;100.00;69030.16;5091509;28;20040;-49
2024/03/23 03:41:55;;;;;;;21.40;9.55;;;;;;;5.71;100.00;69020.34;5091496;28;20422;-49
2024/03/23 03:44:23;;;;;;;26.33;9.68;;;;;;;5.69;100.00;69023.78;5074340;28;20052;-48
2024/03/23 03:46:49;;;;;;;23.63;9.02;;;;;;;5.66;100.00;69020.28;5091359;28;20044;-50
2024/03/23 03:49:17;;;;;;;24.45;9.15;;;;;;;5.65;100.00;69015.97;5091063;28;20052;-52
2024/03/23 03:51:43;;;;;;;22.55;9.63;;;;;;;5.64;100.00;69015.38;5086891;28;20070;-50
2024/03/23 03:54:13;;;;;;;23.15;9.73;;;;;;;5.65;100.00;69016.53;5087957;28;20564;-51
2024/03/23 03:56:40;;;;;;;24.52;9.57;;;;;;;5.62;100.00;69009.88;5091235;28;20060;-48
2024/03/23 03:59:08;;;;;;;21.25;9.93;;;;;;;5.62;100.00;69012.47;5090125;28;20051;-49
2024/03/23 04:01:34;;;;;;;25.75;10.45;;;;;;;5.61;100.00;69014.47;5088677;28;20780;-50
2024/03/23 04:04:01;;;;;;;22.08;9.98;;;;;;;5.57;100.00;69010.41;5087511;28;20048;-49
2024/03/23 04:06:28;;;;;;;25.98;9.77;;;;;;;5.55;100.00;69007.50;5090949;28;20074;-49
2024/03/23 04:08:55;;;;;;;24.55;9.73;;;;;;;5.51;100.00;69000.84;5090743;28;20088;-51
2024/03/23 04:11:21;;;;;;;20.95;9.65;;;;;;;5.49;100.00;68998.50;5090752;28;20040;-48
2024/03/23 04:13:49;;;;;;;28.88;11.18;;;;;;;5.47;100.00;68998.19;5088976;28;20183;-48
2024/03/23 04:16:25;;;;;;;22.38;10.68;;;;;;;5.41;100.00;68991.81;5087327;28;20495;-49
2024/03/23 04:18:52;;;;;;;25.13;10.63;;;;;;;5.35;100.00;68985.41;5087381;28;20051;-48
2024/03/23 04:21:18;;;;;;;29.30;10.55;;;;;;;5.32;100.00;68976.19;5086059;28;20052;-49
2024/03/23 04:23:46;;;;;;;26.48;10.85;;;;;;;5.31;100.00;68978.19;5086759;28;20387;-50
2024/03/23 04:26:12;;;;;;;21.50;9.55;;;;;;;5.35;100.00;68982.25;5087445;28;20036;-50
2024/03/23 04:28:40;;;;;;;24.15;9.55;;;;;;;5.30;100.00;68973.84;5089250;28;20475;-50
2024/03/23 04:31:06;;;;;;;28.23;10.90;;;;;;;5.24;100.00;68970.63;5090313;28;20097;-48
2024/03/23 04:33:33;;;;;;;22.98;10.48;;;;;;;5.18;100.00;68963.66;5087712;28;20055;-49
2024/03/23 04:35:59;;;;;;;25.08;10.85;;;;;;;5.14;100.00;68964.19;5069951;28;20522;-49
2024/03/23 04:38:26;;;;;;;20.60;9.70;;;;;;;5.12;100.00;68956.69;5090291;28;20089;-48
2024/03/23 04:40:58;;;;;;;30.38;10.05;;;;;;;5.08;100.00;68955.22;5090227;28;20047;-48
2024/03/23 04:43:26;;;;;;;27.65;9.68;;;;;;;5.05;100.00;68953.72;5090281;28;20105;-52
2024/03/23 04:45:54;;;;;;;23.77;9.10;;;;;;;5.05;100.00;68948.56;5089869;28;20488;-49
2024/03/23 04:48:22;;;;;;;23.60;9.55;;;;;;;4.99;100.00;68944.16;5089206;28;20056;-49
2024/03/23 04:50:49;;;;;;;19.75;8.77;;;;;;;4.93;100.00;68934.63;5085433;28;20067;-52
2024/03/23 04:53:17;;;;;;;21.60;8.25;;;;;;;4.87;100.00;68928.81;5086228;28;20089;-53
2024/03/23 04:55:43;;;;;;;22.45;7.95;;;;;;;4.86;100.00;68925.06;5086522;28;20495;-53
2024/03/23 04:58:12;;;;;;;22.20;8.27;;;;;;;4.82;100.00;68925.56;5086756;28;20039;-49
2024/03/23 05:00:38;;;;;;;20.85;7.75;;;;;;;4.80;100.00;68920.09;5089825;28;20046;-49
2024/03/23 05:03:05;;;;;;;24.60;7.78;;;;;;;4.74;100.00;68914.28;5089973;28;20047;-50
2024/03/23 05:05:31;;;;;;;19.95;7.22;;;;;;;4.74;100.00;68911.09;5090196;28;20495;-51
2024/03/23 05:07:59;;;;;;;15.60;6.13;;;;;;;4.69;100.00;68905.91;5087907;28;20048;-49
2024/03/23 05:10:25;;;;;;;16.25;6.80;;;;;;;4.65;100.00;68900.66;5090160;28;20048;-48
2024/03/23 05:12:52;;;;;;;19.63;6.30;;;;;;;4.64;100.00;68900.09;5093295;28;20040;-49
2024/03/23 05:15:20;;;;;;;21.17;7.15;;;;;;;4.60;100.00;68900.59;5094288;28;20471;-48
2024/03/23 05:17:47;;;;;;;20.88;6.90;;;;;;;4.54;100.00;68896.81;5077109;28;20050;-48
2024/03/23 05:20:13;;;;;;;19.30;6.20;;;;;;;4.50;100.00;68887.00;5094122;28;20078;-48
2024/03/23 05:22:41;;;;;;;18.75;5.80;;;;;;;4.50;100.00;68888.97;5093873;28;20056;-49
2024/03/23 05:25:07;;;;;;;20.52;6.65;;;;;;;4.50;100.00;68888.97;5094023;28;20040;-49
2024/03/23 05:27:34;;;;;;;18.15;5.80;;;;;;;4.45;100.00;68881.19;5094301;28;20040;-51
2024/03/23 05:30:01;;;;;;;19.88;6.72;;;;;;;4.44;100.00;68882.03;5090568;28;20592;-49
2024/03/23 05:32:29;;;;;;;20.13;5.88;;;;;;;4.42;100.00;68879.69;5091750;28;20486;-52
2024/03/23 05:34:56;;;;;;;22.48;5.35;;;;;;;4.38;100.00;68873.06;5093720;28;20126;-50
2024/03/23 05:37:23;;;;;;;17.17;5.25;;;;;;;4.39;100.00;68876.78;5093818;28;20405;-49
2024/03/23 05:39:50;;;;;;;18.95;5.20;;;;;;;4.38;100.00;68873.06;5093687;28;20040;-50
2024/03/23 05:42:17;;;;;;;14.70;4.72;;;;;;;4.39;100.00;68874.19;5093258;28;20054;-48
2024/03/23 05:44:45;;;;;;;16.85;6.00;;;;;;;4.37;100.00;68874.47;5107327;28;20047;-51
2024/03/23 05:47:13;;;;;;;16.13;5.03;;;;;;;4.37;100.00;68871.88;5091762;28;20171;-48
2024/03/23 05:49:42;;;;;;;17.58;4.78;;;;;;;4.36;100.00;68873.31;5093497;28;20074;-51
2024/03/23 05:52:09;;;;;;;16.33;4.80;;;;;;;4.33;100.00;68864.66;5089386;28;20044;-49
2024/03/23 05:54:38;;;;;;;20.35;5.43;;;;;;;4.34;100.00;68871.00;5089822;28;20048;-50
2024/03/23 05:57:07;;;;;;;16.98;5.05;;;;;;;4.32;100.00;68866.66;5093405;28;20601;-48
2024/03/23 05:59:33;;;;;;;19.80;5.80;;;;;;;4.31;100.00;68867.50;5093194;28;20089;-48
2024/03/23 06:02:00;;;;;;;16.70;4.88;;;;;;;4.33;100.00;68872.41;5093373;28;20376;-50
2024/03/23 06:04:26;;;;;;;13.48;5.25;;;;;;;4.30;100.00;68861.19;5093232;28;20044;-49
2024/03/23 06:06:55;;;;;;;18.00;5.80;;;;;;;4.28;100.00;68864.59;5093329;28;20102;-49
2024/03/23 06:09:21;;;;;;;15.10;5.53;;;;;;;4.29;100.00;68862.59;5090125;28;20044;-50
2024/03/23 06:11:50;;;;;;;17.48;5.10;;;;;;;4.25;100.00;68857.97;5090354;28;20494;-53
2024/03/23 06:14:17;;;;;;;15.45;5.28;;;;;;;4.25;100.00;68857.97;5091498;28;20062;-50
2024/03/23 06:16:44;;;;;;;22.58;5.43;;;;;;;4.26;100.00;68861.72;5072789;28;20086;-49
2024/03/23 06:19:10;;;;;;;14.00;5.05;;;;;;;4.28;100.00;68862.03;5089722;28;20047;-48
2024/03/23 06:21:44;;;;;;;19.05;5.35;;;;;;;4.28;100.00;68869.78;5088009;28;20055;-49
2024/03/23 06:24:12;;;;;;;17.45;5.20;;;;;;;4.28;100.00;68864.59;5093043;28;20497;-51
2024/03/23 06:26:40;;;;;;;13.00;4.63;;;;;;;4.32;100.00;68864.09;5092958;28;20060;-50
2024/03/23 06:29:06;;;;;;;14.25;5.20;;;;;;;4.32;100.00;68869.25;5092948;28;20066;-53
2024/03/23 06:31:33;;;;;;;17.98;4.70;;;;;;;4.33;100.00;68870.41;5090752;28;20052;-49
2024/03/23 06:33:59;;;;;;;16.15;4.63;;;;;;;4.34;100.00;68868.97;5072029;28;20040;-52
2024/03/23 06:36:26;;;;;;;18.77;4.88;;;;;;;4.35;100.00;68866.97;5091977;28;20032;-49
2024/03/23 06:38:52;;;;;;;18.10;5.13;;;;;;;4.40;100.00;68877.94;5088428;28;20058;-50
2024/03/23 06:41:21;;;;;;;17.50;5.13;;;;;;;4.49;100.00;68885.81;5090789;28;20132;-48
2024/03/23 06:43:47;;;;;;;13.77;4.22;;;;;;;4.54;100.00;68891.63;5092472;28;20353;-49
2024/03/23 06:46:15;;;;;;;16.15;4.03;;;;;;;4.60;100.00;68897.44;5075334;28;20097;-52
2024/03/23 06:48:41;;;;;;;15.15;4.43;;;;;;;4.65;100.00;68903.25;5089148;28;20040;-53
2024/03/23 06:51:09;;;;;;;14.88;4.13;;;;;;;4.67;100.00;68905.56;5088756;28;20052;-51
2024/03/23 06:53:35;;;;;;;15.55;4.10;;;;;;;4.70;100.00;68912.22;5090465;28;20064;-49
2024/03/23 06:56:02;;;;;;;16.02;3.75;;;;;;;4.77;100.00;68916.59;5071238;28;20059;-50
2024/03/23 06:58:29;;;;;;;15.18;4.05;;;;;;;4.87;100.00;68928.22;5089225;28;20047;-48
2024/03/23 07:00:56;;;;;;;18.00;3.67;;;;;;;4.94;100.00;68935.78;5088843;28;20044;-50
2024/03/23 07:03:23;;;;;;;15.82;4.20;;;;;;;4.99;100.00;68941.56;5074720;28;20052;-50
2024/03/23 07:05:50;;;;;;;17.17;4.15;;;;;;;5.04;100.00;68942.22;5092017;28;20402;-49
2024/03/23 07:08:21;;;;;;;12.48;3.72;;;;;;;5.14;100.00;68958.41;5090928;28;20382;-48
2024/03/23 07:10:50;;;;;;;17.48;4.45;;;;;;;5.23;100.00;68971.47;5088851;28;20379;-50
2024/03/23 07:13:17;;;;;;;17.48;4.32;;;;;;;5.35;100.00;68984.84;5088260;28;20458;-47
2024/03/23 07:15:52;;;;;;;18.75;4.57;;;;;;;5.45;100.00;68996.47;5090955;28;20449;-53
2024/03/23 07:18:18;;;;;;;14.65;4.05;;;;;;;5.55;100.00;69000.31;5091189;28;20403;-49
2024/03/23 07:20:53;;;;;;;17.08;4.00;;;;;;;5.61;100.00;69009.31;5087782;28;20044;-49
2024/03/23 07:23:19;;;;;;;14.63;3.70;;;;;;;5.72;100.00;69024.09;5089330;28;20100;-50
2024/03/23 07:25:57;;;;;;;13.50;4.05;;;;;;;5.80;100.00;69030.22;5091688;28;20075;-49
2024/03/23 07:28:23;;;;;;;16.75;3.83;;;;;;;5.86;100.00;69037.19;5091419;28;20073;-49
2024/03/23 07:31:05;;;;;;;16.20;3.67;;;;;;;5.93;100.00;69048.53;5091550;28;20040;-48
2024/03/23 07:33:32;;;;;;;11.30;3.83;;;;;;;6.09;100.00;69065.97;5091366;28;20127;-51
2024/03/23 07:36:00;;;;;;;13.43;3.63;;;;;;;6.17;100.00;69077.28;5091352;28;20283;-49
2024/03/23 07:38:27;;;;;;;12.05;3.45;;;;;;;6.28;100.00;69089.50;5087919;28;20048;-51
2024/03/23 07:41:03;;;;;;;12.65;3.67;;;;;;;6.36;100.00;69093.63;5088158;28;20074;-50
2024/03/23 07:43:30;;;;;;;12.32;2.80;;;;;;;6.41;100.00;69102.03;5091505;28;20036;-51
2024/03/23 07:45:57;;;;;;;15.93;3.25;;;;;;;6.54;100.00;69117.16;5091277;28;20040;-48
2024/03/23 07:48:24;;;;;;;14.38;3.65;;;;;;;6.71;100.00;69136.34;5091271;28;20055;-49
2024/03/23 07:50:59;;;;;;;16.50;3.53;;;;;;;6.75;100.00;69141.00;5091062;28;20044;-50
2024/03/23 07:53:25;;;;;;;;;;;;;;;6.86;100.00;69150.06;5074727;28;20131;-50
2024/03/23 07:55:57;;;;;;;11.55;3.25;;;;;;;7.01;100.00;69166.91;5090417;28;19931;-51
2024/03/23 07:58:24;;;;;;;9.82;3.30;;;;;;;7.13;100.00;69180.91;5088337;28;20070;-51
2024/03/23 08:00:51;;;;;;;14.38;3.63;;;;;;;7.25;100.00;69194.88;5087840;28;20098;-53
2024/03/23 08:03:17;;;;;;;14.20;3.67;;;;;;;7.34;100.00;69209.94;5089627;28;20119;-51
2024/03/23 08:05:46;;;;;;;13.35;3.30;;;;;;;7.45;100.00;69216.97;5073658;28;20058;-52
2024/03/23 08:08:12;;;;;;;10.52;3.22;;;;;;;7.57;100.00;69238.75;5086858;28;20411;-50
2024/03/23 08:10:48;;;;;;;14.25;3.63;;;;;;;7.68;100.00;69243.19;5087491;28;20040;-51
2024/03/23 08:13:14;;;;;;;13.57;3.40;;;;;;;7.75;100.00;69251.31;5070834;28;20170;-51
2024/03/23 08:15:44;;;;;;;14.52;2.85;;;;;;;7.89;100.00;69269.63;5087475;28;20046;-50
2024/03/23 08:18:12;;;;;;;13.30;3.80;;;;;;;7.95;100.00;69278.66;5087583;28;20499;-49
2024/03/23 08:20:39;;;;;;;12.30;3.33;;;;;;;7.95;100.00;69274.03;5087277;28;20040;-51
2024/03/23 08:23:07;;;;;;;11.98;3.15;;;;;;;7.94;100.00;69272.88;5090747;28;20051;-52
2024/03/23 08:25:35;;;;;;;14.20;3.38;;;;;;;7.97;100.00;69275.19;5089210;28;20050;-51
2024/03/23 08:28:01;;;;;;;13.48;3.20;;;;;;;7.98;100.00;69276.94;5087023;28;20069;-49
2024/03/23 08:30:29;;;;;;;9.85;2.75;;;;;;;8.00;100.00;69283.88;5088056;28;20082;-51
2024/03/23 08:32:55;;;;;;;11.27;3.30;;;;;;;8.03;100.00;69284.78;5089970;28;20052;-50
2024/03/23 08:35:22;;;;;;;12.85;2.78;;;;;;;7.95;100.00;69276.06;5090528;28;20059;-52
2024/03/23 08:37:48;;;;;;;10.43;3.20;;;;;;;7.91;100.00;69268.81;5090458;28;20304;-52
2024/03/23 08:40:17;;;;;;;9.50;2.70;;;;;;;7.97;100.00;69275.19;5090259;28;20032;-50
2024/03/23 08:42:43;;;;;;;10.93;2.60;;;;;;;8.01;100.00;69282.47;5090456;28;20040;-50
2024/03/23 08:45:10;;;;;;;13.15;2.80;;;;;;;8.04;100.00;69286.53;5090032;28;20055;-51
2024/03/23 08:47:36;;;;;;;12.75;2.75;;;;;;;8.15;100.00;69298.75;5090020;28;20517;-50
2024/03/23 08:50:07;;;;;;;9.93;2.75;;;;;;;8.22;100.00;69308.94;5086162;28;20151;-52
2024/03/23 08:52:33;;;;;;;10.90;2.30;;;;;;;8.35;100.00;69321.47;5087352;28;20047;-53
2024/03/23 08:55:01;;;;;;;10.68;2.60;;;;;;;8.46;100.00;69333.72;5090119;28;20507;-50
2024/03/23 08:57:28;;;;;;;9.48;2.42;;;;;;;8.69;100.00;69359.94;5089990;28;20496;-51
2024/03/23 08:59:55;;;;;;;13.73;2.67;;;;;;;8.92;100.00;69388.22;5087452;28;20384;-50
2024/03/23 09:02:21;;;;;;;13.73;2.38;;;;;;;9.14;100.00;69410.66;5087068;28;20043;-52
2024/03/23 09:04:49;;;;;;;12.20;2.35;;;;;;;9.52;100.00;69451.19;5086779;28;20212;-51
2024/03/23 09:07:17;;;;;;;8.18;1.83;;;;;;;9.78;100.00;69477.75;5087828;28;20046;-50
2024/03/23 09:09:44;;;;;;;10.15;2.45;;;;;;;9.83;100.00;69483.59;5073109;28;20040;-51
2024/03/23 09:12:12;;;;;;;10.93;2.38;;;;;;;9.51;100.00;69454.66;5087253;28;20044;-49
2024/03/23 09:14:41;;;;;;;9.07;2.00;;;;;;;9.25;100.00;69423.47;5087152;28;20072;-51
2024/03/23 09:17:08;;;;;;;8.20;2.13;;;;;;;9.04;100.00;69399.59;5086640;28;20047;-52
2024/03/23 09:19:35;;;;;;;8.15;1.70;;;;;;;8.73;100.00;69364.63;5086742;28;20042;-52
2024/03/23 09:22:04;;;;;;;14.73;2.58;;;;;;;8.50;100.00;69335.22;5085026;28;20788;-49
2024/03/23 09:24:32;;;;;;;8.60;2.28;;;;;;;8.19;100.00;69302.84;5086326;28;20047;-52
2024/03/23 09:26:58;;;;;;;7.78;1.58;;;;;;;7.90;100.00;69270.81;5088687;28;20036;-52
2024/03/23 09:29:25;;;;;;;6.60;1.25;;;;;;;7.98;100.00;69282.16;5089957;28;20036;-51
2024/03/23 09:31:52;;;;;;;5.40;1.52;;;;;;;7.77;100.00;69253.66;5089938;28;20040;-51
2024/03/23 09:34:19;;;;;;;11.45;1.77;;;;;;;7.98;100.00;69284.75;5088420;28;20495;-49
2024/03/23 09:36:47;;;;;;;7.75;1.80;;;;;;;8.19;100.00;69300.81;5085447;28;20418;-52
2024/03/23 09:39:15;;;;;;;10.10;2.10;;;;;;;8.45;100.00;69333.16;5086123;28;20416;-53
2024/03/23 09:41:44;;;;;;;10.60;1.83;;;;;;;8.75;100.00;69368.97;5086394;28;20448;-52
2024/03/23 09:44:11;;;;;;;8.32;1.80;;;;;;;8.93;100.00;69384.16;5086827;28;20043;-50
2024/03/23 09:46:39;;;;;;;12.93;2.47;;;;;;;9.08;100.00;69401.06;5089600;28;20036;-49
2024/03/23 09:49:08;;;;;;;8.77;2.30;;;;;;;9.30;100.00;69431.91;5089677;28;20044;-52
2024/03/23 09:51:36;;;;;;;7.78;1.73;;;;;;;9.43;100.00;69440.69;5089612;28;20052;-50
2024/03/23 09:54:03;;;;;;;10.82;2.40;;;;;;;9.42;100.00;69442.13;5072827;28;20056;-49
2024/03/23 09:56:30;;;;;;;9.95;2.10;;;;;;;9.24;100.00;69422.34;5090805;28;20059;-50
2024/03/23 09:59:03;;;;;;;12.48;4.15;;;;;;;9.46;100.00;69444.78;5093222;28;20151;-51
2024/03/23 10:01:30;;;;;;;14.00;2.55;;;;;;;9.63;100.00;69466.06;5093394;28;20391;-49
2024/03/23 10:03:57;;;;;;;11.82;2.17;;;;;;;9.81;100.00;69489.63;5093171;28;20537;-52
2024/03/23 10:06:25;;;;;;;8.98;1.95;;;;;;;10.00;100.00;69504.84;5093251;28;20044;-51
2024/03/23 10:08:54;;;;;;;8.40;2.33;;;;;;;10.19;100.00;69527.00;5093440;28;20051;-50
2024/03/23 10:11:21;;;;;;;9.75;1.80;;;;;;;10.40;100.00;69547.75;5090335;28;20506;-52
2024/03/23 10:13:48;;;;;;;10.55;1.63;;;;;;;10.65;100.00;69584.78;5090831;28;20100;-52
2024/03/23 10:16:22;;;;;;;9.93;1.83;;;;;;;10.67;100.00;69581.28;5093029;28;20036;-52
2024/03/23 10:18:50;;;;;;;9.40;1.70;;;;;;;10.85;100.00;69601.72;5092886;28;20048;-51
2024/03/23 10:21:17;;;;;;;14.85;2.08;;;;;;;10.92;100.00;69612.53;5092263;28;20040;-52
2024/03/23 10:23:46;;;;;;;9.63;1.95;;;;;;;11.10;100.00;69627.16;5092401;28;20039;-52
2024/03/23 10:26:23;;;;;;;8.88;1.63;;;;;;;10.91;100.00;69611.34;5092762;28;20046;-52
2024/03/23 10:28:54;;;;;;;4.45;1.23;;;;;;;10.91;100.00;69608.72;5092673;28;20036;-52
2024/03/23 10:31:21;;;;;;;8.30;1.45;;;;;;;11.05;100.00;69624.50;5092722;28;20052;-52
2024/03/23 10:33:48;;;;;;;9.43;1.50;;;;;;;11.25;100.00;69644.66;5092584;28;20032;-50
2024/03/23 10:36:14;;;;;;;8.98;2.00;;;;;;;11.30;100.00;69655.72;5092446;28;20147;-52
2024/03/23 10:38:42;;;;;;;8.48;1.40;;;;;;;10.86;100.00;69604.94;5092624;28;20394;-50
2024/03/23 10:41:10;;;;;;;4.63;1.33;;;;;;;10.44;100.00;69557.66;5092838;28;20058;-51
2024/03/23 10:43:38;;;;;;;6.97;1.35;;;;;;;9.75;100.00;69480.03;5092750;28;20048;-52
2024/03/23 10:46:05;;;;;;;8.40;1.88;;;;;;;9.51;100.00;69457.84;5092382;28;20036;-53
2024/03/23 10:48:33;;;;;;;11.55;1.77;;;;;;;9.46;100.00;69447.41;5092251;28;20052;-52
2024/03/23 10:50:59;;;;;;;7.18;1.60;;;;;;;9.72;100.00;69468.13;5092263;28;20051;-52
2024/03/23 10:53:28;;;;;;;9.50;2.20;;;;;;;9.90;100.00;69496.97;5092288;28;20055;-51
2024/03/23 10:55:57;;;;;;;8.15;2.08;;;;;;;10.35;100.00;69544.53;5092262;28;20047;-53
2024/03/23 10:58:29;;;;;;;8.70;2.13;;;;;;;10.47;100.00;69559.13;5092011;28;20047;-53
2024/03/23 11:00:56;;;;;;;9.93;1.73;;;;;;;10.71;100.00;69585.38;5092171;28;20649;-53
2024/03/23 11:03:37;;;;;;;8.35;2.10;;;;;;;11.04;100.00;69627.97;5092024;28;20055;-53
2024/03/23 11:06:04;;;;;;;10.65;2.30;;;;;;;11.30;100.00;69652.50;5092069;28;20050;-53
2024/03/23 11:08:36;;;;;;;11.63;2.08;;;;;;;11.37;100.00;69665.34;5091091;28;20051;-53
2024/03/23 11:11:13;;;;;;;10.48;2.05;;;;;;;11.77;100.00;69705.66;5091552;28;20208;-51
2024/03/23 11:13:41;;;;;;;11.07;2.03;;;;;;;11.83;100.00;69707.44;5092025;28;20093;-52
2024/03/23 11:16:22;;;;;;;9.38;1.88;;;;;;;12.04;100.00;69736.06;5091899;28;20040;-52
2024/03/23 11:18:49;;;;;;;9.45;1.80;;;;;;;11.79;100.00;69713.81;5091682;28;20119;-52
2024/03/23 11:21:48;;;;;;;10.05;2.00;;;;;;;11.80;100.00;69709.16;5088586;28;20050;-52
2024/03/23 11:24:15;;;;;;;7.82;1.67;;;;;;;11.60;100.00;69686.97;5088231;28;20051;-53
2024/03/23 11:26:41;;;;;;;10.30;1.88;;;;;;;11.80;100.00;69703.94;5088713;28;20071;-53
2024/03/23 11:29:15;;;;;;;9.48;2.13;;;;;;;12.12;93.84;69742.78;5089998;28;20055;-53
2024/03/23 11:31:46;;;;;;;7.70;1.80;;;;;;;12.17;96.24;69751.25;5091531;28;20423;-53